Flight Track Log - Related Links

Times and Time Zones

All times are in EDT time to prevent confusion due to time zone crossing. See the LKF61 flight status page for this flight to view local times or setup timezone preferences in your user account.

Time Position Orientation Groundspeed Altitude Reporting Facility
EDT Latitude Longitude Course Direction KTS MPH feet Rate Location/Type
Sun 04:14:56 PM 26.6792 -80.2022 322° Northwest 245 282 4,100  Level Miami Center
Sun 04:16:56 PM 26.7661 -80.3211 309° West 458 527 10,400 2,633 Climbing Miami Center
Sun 04:17:56 PM 26.8314 -80.3906 316° Northwest 372 428 12,000 1,900 Climbing Miami Center
Sun 04:18:56 PM 26.8944 -80.4600 316° Northwest 345 397 14,200 2,319 Climbing Miami Center
Sun 04:19:55 PM 26.9736 -80.5439 317° Northwest 345 397 16,600 2,450 Climbing Miami Center
Sun 04:20:00 PM 27.1341 -80.4528 322° Northwest  Level FlightAware Approximate
Sun 04:20:56 PM 27.0347 -80.6111 316° Northwest 345 397 19,100  Level Miami Center
Sun 04:21:56 PM 27.0978 -80.6761 317° Northwest 320 368 22,100 2,571 Climbing Miami Center
Sun 04:22:55 PM 27.1781 -80.7161 336° Northwest 315 362 24,200 2,050 Climbing Miami Center
Sun 04:23:56 PM 27.2625 -80.7539 338° Northwest 315 362 26,200 2,000 Climbing Miami Center
Sun 04:24:55 PM 27.3514 -80.7875 341° North 320 368 28,200 1,850 Climbing Miami Center
Sun 04:25:56 PM 27.4339 -80.8278 337° Northwest 320 368 29,900 1,587 Climbing Miami Center
Sun 04:26:56 PM 27.5206 -80.8658 339° North 327 376 31,400 1,350 Climbing Miami Center
Sun 04:27:56 PM 27.6111 -80.9064 338° Northwest 332 382 32,600 800 Climbing Miami Center
Sun 04:28:56 PM 27.7081 -80.9519 337° Northwest 350 403 33,000 200 Climbing Miami Center
Sun 04:29:56 PM 27.8131 -81.0006 338° Northwest 377 434 33,000  Level Miami Center
Sun 04:30:56 PM 27.9161 -81.0489 337° Northwest 395 455 33,000  Level Miami Center
Sun 04:31:56 PM 28.0278 -81.0811 346° North 410 472 33,000  Level Miami Center
Sun 04:32:56 PM 28.1606 -81.1097 349° North 416 479 33,000  Level Miami Center
Sun 04:33:56 PM 28.2664 -81.1278 351° North 433 498 33,000  Level Miami Center
Sun 04:34:56 PM 28.3867 -81.1489 351° North 428 493 33,000  Level Miami Center
Sun 04:35:39 PM 28.4700 -81.1664 350° North 432 497 33,000  Level Jacksonville Center
Sun 04:36:39 PM 28.5853 -81.1856 352° North 427 491 33,000  Level Jacksonville Center
Sun 04:37:39 PM 28.7022 -81.2072 351° North 427 491 33,000  Level Jacksonville Center
Sun 04:38:38 PM 28.8217 -81.2289 351° North 427 491 33,000  Level Jacksonville Center
Sun 04:39:39 PM 28.9386 -81.2483 352° North 427 491 33,000  Level Jacksonville Center
Sun 04:40:39 PM 29.0558 -81.2703 351° North 427 491 33,000  Level Jacksonville Center
Sun 04:41:38 PM 29.1750 -81.2919 351° North 427 491 33,000  Level Jacksonville Center
Sun 04:42:39 PM 29.2903 -81.3139 351° North 427 491 33,000  Level Jacksonville Center
Sun 04:43:39 PM 29.4072 -81.3358 351° North 427 491 33,000  Level Jacksonville Center
Sun 04:44:39 PM 29.5225 -81.3603 350° North 427 491 33,000  Level Jacksonville Center
Sun 04:45:39 PM 29.6397 -81.3825 351° North 427 491 33,000  Level Jacksonville Center
Sun 04:46:39 PM 29.7567 -81.4044 351° North 427 491 33,000  Level Jacksonville Center
Sun 04:47:39 PM 29.8761 -81.4242 352° North 427 491 33,000  Level Jacksonville Center
Sun 04:48:39 PM 29.9933 -81.4489 350° North 427 491 33,000  Level Jacksonville Center
Sun 04:49:39 PM 30.1125 -81.4686 352° North 432 497 33,000  Level Jacksonville Center
Sun 04:50:39 PM 30.2297 -81.4911 351° North 427 491 33,000  Level Jacksonville Center
Sun 04:51:39 PM 30.3467 -81.5133 351° North 427 491 33,000  Level Jacksonville Center
Sun 04:52:39 PM 30.4639 -81.5453 347° North 427 491 33,000  Level Jacksonville Center
Sun 04:53:38 PM 30.5750 -81.5753 347° North 422 486 33,000  Level Jacksonville Center
Sun 04:54:38 PM 30.6900 -81.6050 347° North 417 480 33,000  Level Jacksonville Center
Sun 04:55:39 PM 30.8011 -81.6397 345° North 412 474 33,000  Level Jacksonville Center
Sun 04:56:39 PM 30.9164 -81.6697 347° North 412 474 33,000  Level Jacksonville Center
Sun 04:57:39 PM 31.0294 -81.7022 346° North 418 481 33,000  Level Jacksonville Center
Sun 04:58:38 PM 31.1444 -81.7347 346° North 413 475 33,000  Level Jacksonville Center
Sun 04:59:39 PM 31.2575 -81.7650 347° North 413 475 33,000 -645 Level Jacksonville Center
Sun 05:00:39 PM 31.3725 -81.7975 346° North 418 481 31,700 -1,400 Descending Jacksonville Center
Sun 05:01:39 PM 31.5044 -81.8350 346° North 429 494 30,200 -1,462 Descending Jacksonville Center
Sun 05:02:38 PM 31.6278 -81.8581 351° North 445 512 28,800 -1,400 Descending Jacksonville Center
Sun 05:03:39 PM 31.7386 -81.8764 352° North 445 512 27,400 -1,750 Descending Jacksonville Center
Sun 05:04:38 PM 31.8703 -81.9067 349° North 445 512 25,300 -1,664 Descending Jacksonville Center
Sun 05:05:38 PM 31.9958 -81.9153 357° North 445 512 24,100 -893 Descending Jacksonville Center
Sun 05:06:39 PM 32.1044 -81.9189 358° North 440 506 23,500 -1,289 Descending Jacksonville Center
Sun 05:07:39 PM 32.2358 -81.9247 358° North 440 506 21,500 -1,861 Descending Jacksonville Center
Sun 05:09:46 PM 32.4753 -81.8969 North 414 476 17,700 -1,893 Descending Atlanta Center
Sun 05:10:46 PM 32.5878 -81.8842 North 420 483 15,600 -2,250 Descending Atlanta Center
Sun 05:11:46 PM 32.6922 -81.8939 356° North 392 451 13,200 -2,150 Descending Atlanta Center
Sun 05:12:46 PM 32.7906 -81.9039 355° North 375 432 11,300 -1,750 Descending Atlanta Center
Sun 05:13:46 PM 32.8719 -81.9094 357° North 334 384 9,700 -1,800 Descending Atlanta Center
Sun 05:14:46 PM 32.9453 -81.9175 355° North 292 336 7,700 -2,100 Descending Atlanta Center
Sun 05:15:46 PM 33.0183 -81.9231 356° North 270 311 5,500 -2,000 Descending Atlanta Center
Sun 05:16:46 PM 33.0917 -81.9314 355° North 265 305 3,700 -1,400 Descending Atlanta Center
Sun 05:17:46 PM 33.1647 -81.9369 356° North 265 305 2,700 -750 Descending Atlanta Center
Sun 05:18:46 PM 33.2294 -81.9428 356° North 249 287 2,200 -450 Descending Atlanta Center
Sun 05:19:46 PM 33.2839 -81.9489 355° North 202 232 1,800 -650 Descending Atlanta Center
Sun 05:20:46 PM 33.3236 -81.9581 349° North 168 193 900 -450 Descending Atlanta Center
Sun 05:21:46 PM 33.3719 -81.9667 352° North 168 193 900  Level Atlanta Center

Login

Don't have an account? Register now (free) for customized features, flight alerts, and more!